Flight Briefing for CPX406

Departure Arrival
Nashville International Airport (KBNA)
Click to view FAA NOTAMS
Chicago/Rockford International Airport (KRFD)
Click to view FAA NOTAMS
Departure Time Arrival Time
N/A N/A
Aircraft Distance
B757-200SF 381nm
Departure METAR Arrival METAR
KBNA 190653Z 00000KT 10SM CLR 02/M05 A3039 RMK AO2 SLP291 T00171050 KRFD 190654Z 00000KT 10SM BKN180 M02/M05 A3039 RMK AO2 SLP297 T10221050
Suggested Route
HGGRD PXV J73 GUIDO JOT


View recent IFR Routes data
Notes



Charts and Procedures

Charts for KBNA
No chart available
Charts for KRFD
No chart available

Windy.com Weather Map